Time;durP1;ratioP1;P1;durP2;ratioP2;P2;SDS_P1;SDS_P2;PMS_P1;PMS_P2;Temp;Humidity;BMP_temperature;BMP_pressure;BME280_temperature;BME280_humidity;BME280_pressure;Samples;Min_cycle;Max_cycle;Signal;HPM_P1;HPM_P2
2022/07/27 00:01:20;;;;;;;0.80;0.80;;;;;;;20.74;69.76;100272.13;5092055;28;21154;-50
2022/07/27 00:03:46;;;;;;;0.60;0.50;;;;;;;21.09;69.17;100266.00;5092480;28;20540;-50
2022/07/27 00:06:13;;;;;;;0.80;0.57;;;;;;;20.99;68.89;100273.94;5092446;28;20817;-50
2022/07/27 00:08:40;;;;;;;0.70;0.60;;;;;;;20.92;69.48;100281.59;5092567;28;20461;-50
2022/07/27 00:11:08;;;;;;;0.80;0.73;;;;;;;20.75;69.69;100273.84;5092762;28;20916;-49
2022/07/27 00:13:35;;;;;;;1.37;0.70;;;;;;;20.70;70.27;100281.41;5092242;28;20536;-49
2022/07/27 00:16:02;;;;;;;0.80;0.60;;;;;;;20.71;70.33;100277.75;5089184;28;20806;-50
2022/07/27 00:18:28;;;;;;;0.80;0.63;;;;;;;20.78;70.11;100273.63;5082624;28;20998;-51
2022/07/27 00:20:55;;;;;;;2.13;0.80;;;;;;;20.96;69.40;100272.28;5091595;28;20437;-50
2022/07/27 00:23:21;;;;;;;0.60;0.50;;;;;;;20.94;69.70;100274.25;5082660;28;20450;-50
2022/07/27 00:25:48;;;;;;;0.97;0.87;;;;;;;20.85;69.51;100274.94;5089036;28;20758;-49
2022/07/27 00:28:14;;;;;;;0.77;0.60;;;;;;;20.74;70.74;100268.56;5092383;28;20472;-51
2022/07/27 00:30:41;;;;;;;0.70;0.60;;;;;;;21.07;69.48;100271.53;5092119;28;20461;-49
2022/07/27 00:33:07;;;;;;;0.60;0.40;;;;;;;21.23;68.75;100272.13;5092256;28;20449;-50
2022/07/27 00:35:34;;;;;;;0.60;0.50;;;;;;;21.39;68.35;100273.78;5092169;28;20942;-50
2022/07/27 00:38:01;;;;;;;0.60;0.40;;;;;;;21.35;68.38;100273.09;5092106;28;20476;-50
2022/07/27 00:40:28;;;;;;;2.43;0.50;;;;;;;21.34;68.46;100270.53;5092418;28;20895;-51
2022/07/27 00:42:54;;;;;;;0.60;0.50;;;;;;;21.35;68.49;100270.41;5092133;28;20889;-51
2022/07/27 00:45:20;;;;;;;0.70;0.50;;;;;;;21.31;68.59;100266.22;5092156;28;20449;-51
2022/07/27 00:47:47;;;;;;;1.47;0.53;;;;;;;21.44;68.21;100266.16;5086103;28;20483;-50
2022/07/27 00:50:20;;;;;;;1.53;0.70;;;;;;;21.85;66.79;100266.63;5092163;28;20506;-50
2022/07/27 00:52:47;;;;;;;0.80;0.53;;;;;;;21.57;67.83;100266.97;5092328;28;20455;-50
2022/07/27 00:55:14;;;;;;;0.80;0.40;;;;;;;21.66;67.60;100260.03;5092300;28;20451;-50
2022/07/27 00:57:41;;;;;;;0.90;0.73;;;;;;;21.67;68.09;100272.59;5092130;28;20444;-50
2022/07/27 01:00:26;;;;;;;1.00;0.50;;;;;;;22.07;65.82;100267.75;5079923;28;20989;-50
2022/07/27 01:02:53;;;;;;;4.60;0.80;;;;;;;21.79;67.01;100264.41;5092009;28;20445;-50
2022/07/27 01:05:22;;;;;;;1.00;0.70;;;;;;;21.53;68.38;100270.91;5092241;28;20524;-50
2022/07/27 01:08:02;;;;;;;0.90;0.43;;;;;;;21.33;69.05;100269.66;5091469;28;20864;-51
2022/07/27 01:10:28;;;;;;;2.33;1.40;;;;;;;21.15;69.68;100268.28;5091820;28;20452;-51
2022/07/27 01:12:55;;;;;;;0.60;0.47;;;;;;;21.17;69.72;100267.19;5095720;28;20459;-50
2022/07/27 01:15:21;;;;;;;0.50;0.40;;;;;;;21.23;69.65;100280.25;5096180;28;20451;-50
2022/07/27 01:17:48;;;;;;;1.20;0.73;;;;;;;21.16;69.92;100272.72;5095594;28;20895;-50
2022/07/27 01:20:14;;;;;;;0.50;0.30;;;;;;;21.39;69.25;100271.06;5095695;28;21000;-50
2022/07/27 01:22:41;;;;;;;0.90;0.80;;;;;;;21.33;69.38;100274.22;5091180;28;20449;-51
2022/07/27 01:25:09;;;;;;;0.70;0.40;;;;;;;21.45;68.69;100282.28;5086916;28;20457;-50
2022/07/27 01:27:35;;;;;;;0.70;0.50;;;;;;;20.99;70.61;100276.63;5095771;28;20448;-50
2022/07/27 01:30:25;;;;;;;0.60;0.40;;;;;;;21.22;69.74;100283.06;5095429;28;20476;-50
2022/07/27 01:32:49;;;;;;;0.77;0.70;;;;;;;21.28;69.51;100283.53;5095487;28;20455;-50
2022/07/27 01:35:16;;;;;;;0.70;0.57;;;;;;;21.28;69.55;100285.38;5095228;28;20457;-50
2022/07/27 01:37:42;;;;;;;7.43;0.53;;;;;;;21.08;70.38;100277.78;5095747;28;20444;-50
2022/07/27 01:40:13;;;;;;;0.70;0.60;;;;;;;20.97;70.52;100276.75;5095592;28;20477;-50
2022/07/27 01:42:40;;;;;;;0.60;0.60;;;;;;;21.01;70.60;100280.09;5095513;28;20456;-50
2022/07/27 01:45:07;;;;;;;1.27;1.17;;;;;;;21.16;70.26;100275.41;5095160;28;20453;-49
2022/07/27 01:47:34;;;;;;;0.50;0.37;;;;;;;20.93;71.37;100271.66;5087531;28;20451;-50
2022/07/27 01:50:01;;;;;;;0.60;0.60;;;;;;;21.11;70.66;100277.59;5094942;28;20804;-50
2022/07/27 01:52:27;;;;;;;0.83;0.40;;;;;;;20.91;71.76;100274.47;5095551;28;20444;-50
2022/07/27 01:54:54;;;;;;;0.57;0.40;;;;;;;21.02;71.45;100270.13;5095304;28;20445;-50
2022/07/27 01:57:20;;;;;;;0.70;0.50;;;;;;;21.49;69.59;100270.25;5095078;28;20532;-50
2022/07/27 01:59:47;;;;;;;0.93;0.50;;;;;;;21.50;69.48;100271.09;5095039;28;20493;-50
2022/07/27 02:02:14;;;;;;;2.50;0.60;;;;;;;21.47;69.90;100265.94;5095025;28;20449;-50
2022/07/27 02:04:41;;;;;;;0.60;0.50;;;;;;;21.23;70.66;100263.16;5094794;28;20451;-49
2022/07/27 02:07:08;;;;;;;1.57;1.47;;;;;;;21.04;71.27;100268.19;5095283;28;20449;-50
2022/07/27 02:09:35;;;;;;;0.60;0.47;;;;;;;20.94;71.69;100262.56;5094831;28;20460;-49
2022/07/27 02:14:57;;;;;;;0.57;0.30;;;;;;;21.01;72.08;100261.16;5089153;28;20547;-50
2022/07/27 02:17:31;;;;;;;0.60;0.50;;;;;;;21.25;71.04;100258.56;5094176;28;20480;-50
2022/07/27 02:19:57;;;;;;;0.60;0.40;;;;;;;21.24;71.17;100260.38;5094822;28;20499;-51
2022/07/27 02:22:24;;;;;;;0.90;0.60;;;;;;;21.17;71.34;100263.63;5092428;28;20449;-50
2022/07/27 02:24:51;;;;;;;0.60;0.40;;;;;;;21.11;71.76;100262.25;5083292;28;20455;-50
2022/07/27 02:27:17;;;;;;;0.60;0.33;;;;;;;21.18;71.35;100262.63;5094344;28;20467;-50
2022/07/27 02:29:44;;;;;;;0.87;0.70;;;;;;;21.17;71.68;100260.91;5094572;28;20472;-50
2022/07/27 02:32:10;;;;;;;0.60;0.40;;;;;;;20.98;72.04;100261.41;5094297;28;20460;-50
2022/07/27 02:34:37;;;;;;;0.73;0.67;;;;;;;21.19;71.81;100261.66;5094570;28;20445;-51
2022/07/27 02:37:03;;;;;;;0.53;0.40;;;;;;;20.97;72.64;100267.78;5094383;28;20456;-50
2022/07/27 02:39:29;;;;;;;0.83;0.70;;;;;;;21.02;72.45;100262.03;5094225;28;20492;-50
2022/07/27 02:41:56;;;;;;;0.70;0.67;;;;;;;21.04;72.40;100258.25;5094074;28;20448;-50
2022/07/27 02:44:22;;;;;;;0.73;0.50;;;;;;;20.84;72.94;100257.00;5094570;28;20451;-50
2022/07/27 02:46:49;;;;;;;0.90;0.70;;;;;;;20.96;72.71;100260.63;5086584;28;20813;-52
2022/07/27 02:49:15;;;;;;;0.60;0.40;;;;;;;20.46;74.53;100258.84;5094349;28;20460;-50
2022/07/27 02:51:47;;;;;;;0.80;0.70;;;;;;;20.91;73.29;100266.38;5094704;28;20446;-52
2022/07/27 02:54:13;;;;;;;0.60;0.47;;;;;;;20.93;73.55;100269.81;5094953;28;20481;-50
2022/07/27 02:56:40;;;;;;;0.60;0.40;;;;;;;20.95;73.39;100275.09;5094292;28;20452;-50
2022/07/27 02:59:06;;;;;;;0.60;0.40;;;;;;;20.83;73.90;100265.19;5094661;28;20534;-50
2022/07/27 03:01:33;;;;;;;1.90;0.60;;;;;;;20.66;73.93;100263.69;5093902;28;20821;-50
2022/07/27 03:03:59;;;;;;;7.50;0.63;;;;;;;20.66;74.28;100263.69;5093892;28;20449;-51
2022/07/27 03:06:26;;;;;;;0.63;0.50;;;;;;;20.57;74.43;100257.13;5094026;28;20463;-50
2022/07/27 03:08:52;;;;;;;0.60;0.40;;;;;;;20.85;73.32;100255.16;5093552;28;20469;-49
2022/07/27 03:11:19;;;;;;;0.60;0.40;;;;;;;20.53;74.68;100260.13;5093463;28;20453;-50
2022/07/27 03:13:45;;;;;;;1.30;0.50;;;;;;;20.85;73.81;100261.41;5093666;28;20520;-51
2022/07/27 03:16:12;;;;;;;0.73;0.47;;;;;;;20.83;73.42;100255.25;5092475;28;20452;-50
2022/07/27 03:18:38;;;;;;;0.70;0.60;;;;;;;20.72;74.01;100260.56;5093440;28;21063;-50
2022/07/27 03:21:05;;;;;;;0.80;0.53;;;;;;;20.56;74.58;100262.59;5093315;28;20485;-51
2022/07/27 03:23:33;;;;;;;0.70;0.50;;;;;;;20.72;74.21;100257.00;5081430;28;20795;-51
2022/07/27 03:26:00;;;;;;;3.53;0.90;;;;;;;20.89;73.46;100253.94;5092109;28;20445;-51
2022/07/27 03:28:26;;;;;;;1.40;0.73;;;;;;;20.86;73.42;100257.75;5093340;28;20465;-52
2022/07/27 03:30:53;;;;;;;0.80;0.70;;;;;;;20.73;73.98;100266.81;5093493;28;20463;-49
2022/07/27 03:33:19;;;;;;;0.67;0.50;;;;;;;20.52;74.88;100270.06;5093337;28;20449;-50
2022/07/27 03:35:46;;;;;;;9.17;1.00;;;;;;;20.63;74.71;100264.75;5092192;28;20453;-49
2022/07/27 03:38:12;;;;;;;1.03;0.50;;;;;;;20.61;74.67;100260.44;5093291;28;20461;-50
2022/07/27 03:40:39;;;;;;;0.83;0.67;;;;;;;20.43;75.04;100265.31;5093097;28;20495;-49
2022/07/27 03:43:05;;;;;;;4.40;0.60;;;;;;;20.33;75.55;100267.75;5093133;28;20445;-50
2022/07/27 03:45:32;;;;;;;0.60;0.40;;;;;;;20.39;75.42;100266.44;5092876;28;21010;-49
2022/07/27 03:47:59;;;;;;;0.70;0.53;;;;;;;20.38;75.43;100267.41;5086011;28;20531;-50
2022/07/27 03:50:25;;;;;;;1.00;0.90;;;;;;;20.29;75.64;100268.94;5092788;28;20445;-51
2022/07/27 03:52:52;;;;;;;0.63;0.53;;;;;;;20.52;74.97;100266.50;5092861;28;20453;-49
2022/07/27 03:55:19;;;;;;;1.80;0.60;;;;;;;20.49;74.94;100267.56;5092938;28;20448;-50
2022/07/27 03:57:46;;;;;;;0.60;0.40;;;;;;;20.38;75.87;100262.03;5093086;28;20452;-51
2022/07/27 04:00:14;;;;;;;2.60;0.50;;;;;;;20.36;75.45;100264.84;5092585;28;20508;-50
2022/07/27 04:02:41;;;;;;;0.70;0.40;;;;;;;20.41;75.77;100283.41;5092654;28;20451;-50
2022/07/27 04:05:08;;;;;;;0.70;0.60;;;;;;;20.61;74.78;100288.31;5092796;28;20460;-51
2022/07/27 04:07:35;;;;;;;20.47;0.77;;;;;;;20.65;75.09;100281.72;5092808;28;20537;-50
2022/07/27 04:10:02;;;;;;;1.33;0.70;;;;;;;20.64;74.77;100271.91;5092855;28;20461;-50
2022/07/27 04:12:29;;;;;;;1.20;0.50;;;;;;;20.49;75.38;100280.22;5092711;28;20449;-50
2022/07/27 04:14:57;;;;;;;1.20;1.10;;;;;;;20.65;74.61;100286.25;5092557;28;20453;-49
2022/07/27 04:17:24;;;;;;;1.03;0.50;;;;;;;20.25;76.10;100285.44;5079168;28;20450;-49
2022/07/27 04:20:10;;;;;;;3.53;0.60;;;;;;;20.21;76.73;100286.63;5092300;28;20492;-50
2022/07/27 04:22:37;;;;;;;3.53;1.53;;;;;;;20.50;75.81;100290.91;5078918;28;20449;-50
2022/07/27 04:25:04;;;;;;;6.53;0.77;;;;;;;20.40;76.01;100281.69;5092530;28;20440;-50
2022/07/27 04:27:30;;;;;;;0.60;0.40;;;;;;;20.34;76.49;100291.06;5092220;28;20539;-50
2022/07/27 04:29:57;;;;;;;0.60;0.47;;;;;;;20.46;76.15;100293.94;5092062;28;20859;-50
2022/07/27 04:32:23;;;;;;;2.83;0.70;;;;;;;20.21;76.05;100282.09;5092344;28;20437;-50
2022/07/27 04:34:50;;;;;;;0.70;0.63;;;;;;;20.26;76.46;100288.03;5092460;28;20449;-49
2022/07/27 04:37:16;;;;;;;1.40;0.70;;;;;;;20.36;76.10;100274.78;5092172;28;20452;-49
2022/07/27 04:39:43;;;;;;;0.63;0.63;;;;;;;20.03;77.09;100283.34;5092055;28;20896;-50
2022/07/27 04:42:09;;;;;;;1.90;0.50;;;;;;;19.68;79.10;100280.31;5092127;28;20797;-50
2022/07/27 04:44:36;;;;;;;0.67;0.50;;;;;;;19.87;78.74;100277.25;5092252;28;20445;-49
2022/07/27 04:47:02;;;;;;;1.63;0.67;;;;;;;20.16;77.71;100275.28;5089209;28;20455;-51
2022/07/27 04:49:29;;;;;;;2.33;0.60;;;;;;;19.98;78.16;100274.69;5099209;28;20468;-49
2022/07/27 04:51:55;;;;;;;1.27;0.50;;;;;;;20.39;76.49;100282.66;5099004;28;20455;-49
2022/07/27 04:54:22;;;;;;;1.33;0.50;;;;;;;20.24;77.51;100281.88;5098972;28;20455;-49
2022/07/27 04:56:48;;;;;;;3.00;0.60;;;;;;;20.33;76.56;100278.56;5098783;28;20531;-50
2022/07/27 04:59:14;;;;;;;1.20;0.73;;;;;;;20.49;76.09;100294.59;5098829;28;20471;-49
2022/07/27 05:01:41;;;;;;;8.43;0.73;;;;;;;20.60;75.60;100288.44;5098230;28;20993;-49
2022/07/27 05:04:08;;;;;;;1.13;0.40;;;;;;;20.46;75.75;100305.59;5098736;28;20900;-49
2022/07/27 05:06:34;;;;;;;0.60;0.40;;;;;;;20.23;76.91;100306.28;5098797;28;20820;-50
2022/07/27 05:09:01;;;;;;;0.70;0.40;;;;;;;20.40;76.07;100305.97;5099381;28;20468;-51
2022/07/27 05:11:27;;;;;;;1.13;0.50;;;;;;;20.19;76.92;100307.47;5099183;28;20471;-49
2022/07/27 05:13:54;;;;;;;2.33;0.50;;;;;;;20.14;76.82;100310.47;5098692;28;20461;-50
2022/07/27 05:16:20;;;;;;;2.90;0.97;;;;;;;20.37;76.58;100315.16;5097688;28;20830;-49
2022/07/27 05:18:53;;;;;;;6.10;1.03;;;;;;;19.93;78.08;100325.41;5098649;28;20465;-49
2022/07/27 05:21:20;;;;;;;9.83;1.13;;;;;;;19.91;78.15;100314.72;5098750;28;20488;-50
2022/07/27 05:23:46;;;;;;;0.93;0.70;;;;;;;20.06;78.20;100316.41;5085192;28;20449;-51
2022/07/27 05:26:13;;;;;;;1.90;0.90;;;;;;;19.95;77.97;100309.97;5084810;28;20448;-50
2022/07/27 05:28:39;;;;;;;2.90;1.00;;;;;;;20.09;77.90;100326.13;5098497;28;20503;-50
2022/07/27 05:31:06;;;;;;;0.80;0.50;;;;;;;20.40;76.91;100336.53;5084673;28;20498;-50
2022/07/27 05:33:33;;;;;;;1.13;0.67;;;;;;;20.63;75.24;100335.00;5098564;28;20448;-50
2022/07/27 05:35:59;;;;;;;0.50;0.40;;;;;;;20.49;76.19;100339.63;5078413;28;20454;-51
2022/07/27 05:38:26;;;;;;;0.70;0.60;;;;;;;20.42;75.61;100333.75;5078541;28;20473;-50
2022/07/27 05:40:52;;;;;;;0.70;0.50;;;;;;;20.36;76.17;100337.72;5078253;28;20486;-50
2022/07/27 05:43:19;;;;;;;0.60;0.50;;;;;;;20.34;76.32;100346.91;5078364;28;20449;-50
2022/07/27 05:45:45;;;;;;;1.00;0.90;;;;;;;20.04;77.40;100347.16;5084664;28;20444;-50
2022/07/27 05:48:12;;;;;;;2.10;1.33;;;;;;;20.27;76.91;100343.75;5091811;28;20496;-51
2022/07/27 05:50:38;;;;;;;1.93;0.50;;;;;;;20.55;76.09;100342.75;5098633;28;20440;-50
2022/07/27 05:53:05;;;;;;;0.80;0.60;;;;;;;20.92;73.96;100335.66;5098232;28;20478;-52
2022/07/27 05:55:32;;;;;;;0.83;0.83;;;;;;;20.91;74.20;100347.44;5098262;28;20833;-49
2022/07/27 05:57:58;;;;;;;0.93;0.60;;;;;;;20.39;75.82;100347.44;5095800;28;20471;-49
2022/07/27 06:00:25;;;;;;;1.57;0.60;;;;;;;20.62;74.75;100343.22;5095378;28;20495;-50
2022/07/27 06:02:51;;;;;;;2.50;0.60;;;;;;;21.07;73.94;100349.06;5095055;28;20455;-50
2022/07/27 06:05:18;;;;;;;1.00;0.70;;;;;;;20.99;73.06;100347.78;5094908;28;20957;-50
2022/07/27 06:08:01;;;;;;;5.63;0.70;;;;;;;21.37;71.77;100351.41;5095082;28;20456;-49
2022/07/27 06:10:29;;;;;;;2.63;0.90;;;;;;;21.85;69.87;100347.84;5095098;28;20441;-50
2022/07/27 06:12:57;;;;;;;1.00;0.60;;;;;;;21.98;69.65;100353.19;5094625;28;20445;-52
2022/07/27 06:15:24;;;;;;;1.73;1.10;;;;;;;22.42;67.38;100357.09;5094841;28;20455;-50
2022/07/27 06:17:52;;;;;;;0.83;0.70;;;;;;;22.60;66.82;100352.09;5094206;28;20536;-50
2022/07/27 06:20:21;;;;;;;1.00;0.70;;;;;;;22.94;65.64;100358.50;5094863;28;20484;-50
2022/07/27 06:22:52;;;;;;;1.80;0.50;;;;;;;22.69;65.72;100359.53;5089629;28;20478;-51
2022/07/27 06:25:20;;;;;;;1.53;1.43;;;;;;;22.45;66.34;100352.31;5087395;28;20484;-49
2022/07/27 06:27:47;;;;;;;1.10;0.47;;;;;;;22.88;65.68;100367.13;5094486;28;20471;-50
2022/07/27 06:30:16;;;;;;;1.03;0.90;;;;;;;23.26;63.51;100359.50;5094467;28;20463;-50
2022/07/27 06:32:42;;;;;;;8.33;0.67;;;;;;;22.60;65.31;100365.66;5079999;28;20445;-50
2022/07/27 06:35:10;;;;;;;3.50;0.70;;;;;;;22.99;64.45;100370.72;5094762;28;20447;-50
2022/07/27 06:37:42;;;;;;;1.07;0.50;;;;;;;22.38;64.37;100361.03;5094093;28;20445;-50
2022/07/27 06:40:11;;;;;;;7.90;0.83;;;;;;;22.88;64.77;100367.13;5093874;28;20499;-51
2022/07/27 06:42:38;;;;;;;7.17;0.57;;;;;;;22.90;64.41;100368.75;5094679;28;20932;-50
2022/07/27 06:45:05;;;;;;;1.70;0.60;;;;;;;22.71;65.24;100368.41;5094020;28;20445;-50
2022/07/27 06:47:32;;;;;;;3.47;1.43;;;;;;;22.95;64.47;100366.53;5087061;28;20455;-50
2022/07/27 06:49:58;;;;;;;0.80;0.63;;;;;;;22.70;64.92;100364.84;5093775;28;20982;-50
2022/07/27 06:52:25;;;;;;;1.97;0.60;;;;;;;23.13;63.63;100371.47;5094201;28;20475;-50
2022/07/27 06:54:51;;;;;;;2.30;0.97;;;;;;;23.28;63.51;100359.38;5094135;28;20536;-49
2022/07/27 06:57:18;;;;;;;1.30;0.60;;;;;;;23.08;63.88;100371.84;5094147;28;20449;-50
2022/07/27 06:59:44;;;;;;;1.40;0.83;;;;;;;22.69;64.65;100368.53;5093738;28;20553;-50
2022/07/27 07:02:11;;;;;;;0.60;0.40;;;;;;;22.99;63.50;100369.84;5093892;28;20484;-50
2022/07/27 07:04:37;;;;;;;6.33;0.97;;;;;;;23.24;63.20;100371.47;5093648;28;20445;-51
2022/07/27 07:07:04;;;;;;;2.27;0.77;;;;;;;23.20;62.33;100370.00;5094001;28;20460;-50
2022/07/27 07:09:33;;;;;;;0.80;0.80;;;;;;;23.01;63.13;100368.75;5093406;28;20477;-50
2022/07/27 07:11:59;;;;;;;0.93;0.63;;;;;;;23.16;61.88;100373.94;5093703;28;20948;-51
2022/07/27 07:14:26;;;;;;;0.80;0.70;;;;;;;22.77;63.88;100384.22;5093922;28;20456;-50
2022/07/27 07:16:52;;;;;;;0.60;0.50;;;;;;;22.73;64.66;100377.28;5093192;28;20449;-50
2022/07/27 07:19:19;;;;;;;0.70;0.53;;;;;;;22.84;63.16;100371.06;5093847;28;20479;-50
2022/07/27 07:21:46;;;;;;;3.37;0.90;;;;;;;23.16;63.19;100382.06;5094334;28;20485;-50
2022/07/27 07:24:12;;;;;;;1.60;1.17;;;;;;;23.56;60.92;100380.59;5079900;28;20472;-50
2022/07/27 07:26:39;;;;;;;0.70;0.70;;;;;;;23.26;61.24;100374.94;5093182;28;20484;-49
2022/07/27 07:29:06;;;;;;;1.07;0.57;;;;;;;23.27;61.30;100377.50;5093188;28;20485;-49
2022/07/27 07:31:32;;;;;;;4.33;0.70;;;;;;;22.86;63.41;100383.50;5093036;28;20459;-50
2022/07/27 07:33:59;;;;;;;6.43;1.13;;;;;;;23.03;60.98;100387.63;5093659;28;20486;-51
2022/07/27 07:36:26;;;;;;;1.57;0.93;;;;;;;22.87;61.11;100376.22;5093542;28;20950;-49
2022/07/27 07:38:54;;;;;;;3.23;1.23;;;;;;;22.86;61.88;100385.34;5093134;28;20472;-50
2022/07/27 07:41:24;;;;;;;0.60;0.40;;;;;;;22.75;60.55;100388.84;5092087;28;20493;-49
2022/07/27 07:43:50;;;;;;;2.53;1.57;;;;;;;22.66;60.31;100381.47;5092680;28;20948;-50
2022/07/27 07:46:17;;;;;;;0.80;0.60;;;;;;;22.57;62.47;100377.59;5087952;28;20452;-49
2022/07/27 07:48:43;;;;;;;1.17;0.60;;;;;;;22.66;62.54;100379.63;5091468;28;20469;-49
2022/07/27 07:51:10;;;;;;;33.53;1.30;;;;;;;22.62;62.58;100370.00;5092819;28;20938;-50
2022/07/27 07:53:37;;;;;;;3.07;1.07;;;;;;;22.97;61.97;100374.53;5093023;28;20444;-50
2022/07/27 07:56:08;;;;;;;7.33;0.63;;;;;;;23.22;60.97;100368.91;5093007;28;20449;-50
2022/07/27 07:58:34;;;;;;;2.30;1.10;;;;;;;23.46;59.50;100366.06;5092903;28;20493;-50
2022/07/27 08:01:01;;;;;;;3.23;0.63;;;;;;;23.47;59.05;100358.78;5092713;28;21003;-50
2022/07/27 08:03:27;;;;;;;5.50;1.10;;;;;;;23.40;59.39;100358.41;5092773;28;20449;-52
2022/07/27 08:05:54;;;;;;;6.00;0.90;;;;;;;22.87;60.40;100368.97;5092627;28;20955;-50
2022/07/27 08:08:20;;;;;;;1.27;0.90;;;;;;;22.77;60.72;100371.53;5092398;28;21091;-50
2022/07/27 08:10:50;;;;;;;4.87;0.50;;;;;;;23.20;58.93;100370.88;5092532;28;20549;-52
2022/07/27 08:13:16;;;;;;;2.23;0.80;;;;;;;23.42;57.62;100371.84;5078864;28;20449;-49
2022/07/27 08:15:47;;;;;;;12.03;0.80;;;;;;;23.17;58.74;100368.41;5092594;28;20448;-50
2022/07/27 08:18:14;;;;;;;3.80;0.80;;;;;;;22.46;60.49;100374.84;5092746;28;20491;-50
2022/07/27 08:20:40;;;;;;;0.60;0.50;;;;;;;22.81;59.31;100374.84;5091553;28;20554;-50
2022/07/27 08:23:06;;;;;;;4.53;0.97;;;;;;;22.91;60.06;100370.47;5084301;28;20449;-50
2022/07/27 08:25:33;;;;;;;0.60;0.40;;;;;;;22.65;59.42;100369.75;5086712;28;20445;-52
2022/07/27 08:27:59;;;;;;;6.13;1.17;;;;;;;22.56;59.38;100366.88;5092517;28;20445;-50
2022/07/27 08:30:28;;;;;;;2.53;1.27;;;;;;;22.51;60.00;100363.69;5092319;28;20457;-50
2022/07/27 08:33:00;;;;;;;1.77;1.30;;;;;;;22.62;59.07;100364.59;5092606;28;20460;-50
2022/07/27 08:35:28;;;;;;;3.33;0.90;;;;;;;22.96;58.56;100367.38;5092227;28;20459;-50
2022/07/27 08:37:55;;;;;;;3.03;0.87;;;;;;;23.03;58.82;100365.94;5092682;28;20453;-50
2022/07/27 08:40:23;;;;;;;0.80;0.77;;;;;;;23.28;56.67;100354.81;5092007;28;20449;-50
2022/07/27 08:43:14;;;;;;;5.50;0.80;;;;;;;23.92;54.83;100367.75;5092482;28;20448;-50
2022/07/27 08:45:57;;;;;;;1.00;0.80;;;;;;;23.84;54.75;100365.66;5079307;28;20543;-52
2022/07/27 08:48:25;;;;;;;11.30;0.90;;;;;;;23.67;54.99;100357.19;5088306;28;20480;-50
2022/07/27 08:50:52;;;;;;;10.37;0.53;;;;;;;23.67;55.18;100368.03;5091943;28;20445;-50
2022/07/27 08:53:20;;;;;;;7.60;1.00;;;;;;;23.78;54.92;100370.75;5092599;28;20445;-51
2022/07/27 08:55:48;;;;;;;0.50;0.30;;;;;;;23.53;54.68;100372.69;5092323;28;20532;-50
2022/07/27 08:58:15;;;;;;;1.83;0.87;;;;;;;23.67;55.33;100366.19;5091864;28;20484;-50
2022/07/27 09:00:45;;;;;;;1.33;0.50;;;;;;;23.67;54.58;100360.75;5091567;28;20492;-50
2022/07/27 09:03:13;;;;;;;5.00;1.20;;;;;;;23.88;54.36;100369.84;5090847;28;20445;-50
2022/07/27 09:05:56;;;;;;;1.37;0.83;;;;;;;24.03;53.00;100373.16;5091923;28;20854;-50
2022/07/27 09:08:25;;;;;;;5.37;1.07;;;;;;;23.90;53.33;100364.28;5091713;28;20504;-49
2022/07/27 09:10:53;;;;;;;1.00;0.80;;;;;;;23.70;53.62;100359.63;5091907;28;20441;-51
2022/07/27 09:13:29;;;;;;;3.73;1.27;;;;;;;23.61;53.68;100369.41;5091841;28;20449;-50
2022/07/27 09:16:02;;;;;;;1.30;0.83;;;;;;;23.47;54.89;100372.34;5091570;28;20941;-49
2022/07/27 09:18:44;;;;;;;3.57;1.43;;;;;;;23.61;54.15;100367.56;5092088;28;20530;-50
2022/07/27 09:21:22;;;;;;;2.93;0.80;;;;;;;23.52;54.18;100373.69;5091247;28;20480;-50
2022/07/27 09:23:50;;;;;;;1.13;0.70;;;;;;;23.10;55.79;100378.00;5078097;28;20540;-50
2022/07/27 09:26:18;;;;;;;9.33;1.00;;;;;;;23.21;55.11;100372.59;5091704;28;20524;-49
2022/07/27 09:29:02;;;;;;;3.73;1.07;;;;;;;23.25;54.88;100371.34;5091541;28;21041;-50
2022/07/27 09:31:29;;;;;;;3.70;0.77;;;;;;;23.43;55.24;100370.84;5092021;28;20460;-49
2022/07/27 09:33:59;;;;;;;1.77;1.20;;;;;;;23.46;54.34;100368.78;5094492;28;20480;-49
2022/07/27 09:36:27;;;;;;;14.00;1.47;;;;;;;23.67;54.40;100371.63;5095458;28;20448;-49
2022/07/27 09:38:55;;;;;;;1.93;1.83;;;;;;;23.58;54.34;100372.38;5095344;28;21033;-49
2022/07/27 09:41:42;;;;;;;0.80;0.70;;;;;;;23.57;53.00;100373.31;5095462;28;20572;-50
2022/07/27 09:44:12;;;;;;;1.57;1.13;;;;;;;23.92;52.57;100365.88;5095855;28;20449;-50
2022/07/27 09:46:58;;;;;;;0.70;0.60;;;;;;;24.12;51.63;100372.41;5088355;28;20440;-50
2022/07/27 09:49:32;;;;;;;0.80;0.73;;;;;;;23.71;51.69;100369.50;5095186;28;20900;-50
2022/07/27 09:52:01;;;;;;;0.90;0.60;;;;;;;24.20;51.10;100366.28;5095027;28;20812;-50
2022/07/27 09:54:42;;;;;;;2.20;0.80;;;;;;;24.18;50.44;100371.00;5095532;28;20448;-50
2022/07/27 09:57:09;;;;;;;1.80;0.50;;;;;;;23.61;52.31;100366.69;5094972;28;20455;-50
2022/07/27 09:59:36;;;;;;;1.57;1.47;;;;;;;23.80;52.25;100364.19;5094707;28;20481;-50
2022/07/27 10:02:02;;;;;;;0.93;0.77;;;;;;;24.02;50.90;100365.13;5095151;28;20488;-50
2022/07/27 10:04:31;;;;;;;3.93;1.17;;;;;;;24.09;50.98;100367.19;5094894;28;20451;-50
2022/07/27 10:06:59;;;;;;;1.80;0.93;;;;;;;24.06;50.06;100359.31;5095164;28;20456;-50
2022/07/27 10:09:31;;;;;;;6.03;0.60;;;;;;;24.48;49.90;100362.13;5094876;28;20507;-52
2022/07/27 10:11:58;;;;;;;0.60;0.50;;;;;;;24.62;49.04;100361.81;5094673;28;20445;-51
2022/07/27 10:14:25;;;;;;;0.80;0.40;;;;;;;24.74;48.23;100359.91;5094641;28;21001;-51
2022/07/27 10:16:52;;;;;;;1.33;0.93;;;;;;;25.16;48.07;100365.34;5094688;28;20445;-51
2022/07/27 10:19:45;;;;;;;2.30;0.70;;;;;;;25.43;46.27;100367.47;5094775;28;20471;-51
2022/07/27 10:22:13;;;;;;;3.30;0.90;;;;;;;24.74;47.66;100365.34;5088261;28;20477;-51
2022/07/27 10:24:39;;;;;;;1.50;0.60;;;;;;;24.86;47.22;100369.72;5094425;28;20441;-50
2022/07/27 10:27:19;;;;;;;5.20;0.60;;;;;;;24.08;48.29;100372.75;5094491;28;20449;-50
2022/07/27 10:29:50;;;;;;;0.90;0.50;;;;;;;24.27;48.71;100372.09;5093996;28;20993;-51
2022/07/27 10:32:30;;;;;;;0.97;0.70;;;;;;;23.89;49.05;100370.72;5094432;28;20536;-50
2022/07/27 10:35:00;;;;;;;1.27;0.50;;;;;;;24.02;48.89;100374.16;5094384;28;20506;-51
2022/07/27 10:37:29;;;;;;;5.60;0.50;;;;;;;24.07;48.26;100371.03;5093990;28;20445;-50
2022/07/27 10:42:45;;;;;;;4.50;1.00;;;;;;;24.70;47.56;100372.03;5095869;28;20484;-51
2022/07/27 10:45:19;;;;;;;1.10;0.70;;;;;;;25.15;45.38;100369.06;5093412;28;20441;-50
2022/07/27 10:47:49;;;;;;;2.30;0.70;;;;;;;24.95;46.34;100371.66;5087725;28;20942;-50
2022/07/27 10:50:18;;;;;;;0.83;0.50;;;;;;;24.79;46.18;100363.94;5094119;28;20539;-49
2022/07/27 10:52:53;;;;;;;0.70;0.50;;;;;;;25.57;44.88;100370.66;5094101;28;20449;-50
2022/07/27 10:55:33;;;;;;;5.63;1.47;;;;;;;25.18;44.19;100369.63;5094032;28;20459;-51
2022/07/27 10:58:03;;;;;;;4.23;1.30;;;;;;;25.09;44.57;100375.91;5093675;28;20451;-51
2022/07/27 11:00:47;;;;;;;0.97;0.70;;;;;;;24.73;44.59;100366.34;5094019;28;20453;-51
2022/07/27 11:03:32;;;;;;;1.40;0.80;;;;;;;25.24;43.57;100374.56;5097146;28;20476;-51
2022/07/27 11:06:02;;;;;;;2.70;0.50;;;;;;;25.62;43.75;100365.66;5096701;28;20443;-52
2022/07/27 11:08:51;;;;;;;1.10;1.00;;;;;;;25.83;41.70;100368.34;5093962;28;20480;-50
2022/07/27 11:11:38;;;;;;;7.67;0.93;;;;;;;26.07;42.35;100364.38;5080927;28;20815;-50
2022/07/27 11:14:04;;;;;;;0.60;0.40;;;;;;;25.75;42.54;100364.59;5093522;28;20445;-50
2022/07/27 11:16:32;;;;;;;1.70;1.07;;;;;;;25.96;42.24;100358.06;5088913;28;20453;-52
2022/07/27 11:19:12;;;;;;;5.60;1.13;;;;;;;25.46;43.24;100364.47;5089545;28;20522;-52
2022/07/27 11:21:40;;;;;;;5.47;0.63;;;;;;;25.76;42.85;100359.00;5098154;28;20542;-51
2022/07/27 11:24:12;;;;;;;4.00;0.80;;;;;;;25.94;42.11;100357.34;5079983;28;20547;-51
2022/07/27 11:26:44;;;;;;;1.17;0.87;;;;;;;25.86;41.69;100350.84;5093237;28;20445;-51
2022/07/27 11:29:13;;;;;;;0.63;0.40;;;;;;;25.66;43.20;100347.19;5092125;28;20483;-52
2022/07/27 11:31:42;;;;;;;0.80;0.40;;;;;;;25.97;41.81;100361.63;5095938;28;20453;-52
2022/07/27 11:34:27;;;;;;;0.70;0.50;;;;;;;25.54;42.36;100360.06;5093781;28;21003;-52
2022/07/27 11:36:55;;;;;;;8.50;0.40;;;;;;;25.31;42.78;100347.63;5080463;28;20823;-50